CAL155 RJGG-RCTP
Flight info
| Callsign | CAL155 |
|---|---|
| Flight time | N/A |
| Altitude | 38000 |
| Route | KEC Y24 KOSHI Y50 IGMON A1 DRAKE DRAKE1A |
| Aircraft | B738/M-SDE2E3FGHIRWXY/LB1 |
Departure
| Time | 2026-05-09 03:58 |
|---|---|
| Airport | Chubu Centrair International Airport (RJGG) |
Arrival
| Time | N/A |
|---|---|
| Airport | Taiwan Taoyuan International Airport (RCTP) |
| Time | Latitude | Longitude | Altitude | Speed | Heading |
|---|---|---|---|---|---|
| 2026-05-09 03:38 | 34.85922 | 136.81142 | 8 ft | 0 kts | 170° |
| 2026-05-09 03:45 | 34.85929 | 136.81140 | 8 ft | 2 kts | 170° |
| 2026-05-09 03:45 | 34.85944 | 136.81137 | 8 ft | 2 kts | 170° |
| 2026-05-09 03:46 | 34.85959 | 136.81134 | 8 ft | 2 kts | 170° |
| 2026-05-09 03:46 | 34.85974 | 136.81131 | 8 ft | 2 kts | 170° |
| 2026-05-09 03:46 | 34.85989 | 136.81128 | 8 ft | 2 kts | 170° |
| 2026-05-09 03:46 | 34.86004 | 136.81125 | 8 ft | 2 kts | 197° |
| 2026-05-09 03:47 | 34.86017 | 136.81134 | 8 ft | 2 kts | 227° |
| 2026-05-09 03:47 | 34.86024 | 136.81151 | 8 ft | 2 kts | 261° |
| 2026-05-09 03:47 | 34.86029 | 136.81166 | 8 ft | 2 kts | 221° |
| 2026-05-09 03:47 | 34.86042 | 136.81175 | 8 ft | 2 kts | 188° |
| 2026-05-09 03:48 | 34.86057 | 136.81174 | 8 ft | 2 kts | 164° |
| 2026-05-09 03:48 | 34.86066 | 136.81171 | 8 ft | 0 kts | 171° |
| 2026-05-09 03:50 | 34.86064 | 136.81171 | 8 ft | 2 kts | 171° |
| 2026-05-09 03:50 | 34.86035 | 136.81169 | 8 ft | 5 kts | 220° |
| 2026-05-09 03:50 | 34.86018 | 136.81116 | 8 ft | 8 kts | 258° |
| 2026-05-09 03:50 | 34.86007 | 136.81049 | 8 ft | 7 kts | 259° |
| 2026-05-09 03:51 | 34.85998 | 136.80991 | 8 ft | 6 kts | 258° |
| 2026-05-09 03:51 | 34.85989 | 136.80943 | 8 ft | 4 kts | 258° |
| 2026-05-09 03:51 | 34.85983 | 136.80907 | 8 ft | 4 kts | 259° |
| 2026-05-09 03:51 | 34.86001 | 136.80861 | 8 ft | 8 kts | 332° |
| 2026-05-09 03:52 | 34.86037 | 136.80804 | 8 ft | 8 kts | 271° |
| 2026-05-09 03:52 | 34.86003 | 136.80751 | 8 ft | 8 kts | 190° |
| 2026-05-09 03:52 | 34.85937 | 136.80762 | 8 ft | 11 kts | 169° |
| 2026-05-09 03:52 | 34.85841 | 136.80785 | 8 ft | 16 kts | 169° |
| 2026-05-09 03:53 | 34.85716 | 136.80814 | 8 ft | 20 kts | 169° |
| 2026-05-09 03:53 | 34.85560 | 136.80852 | 8 ft | 24 kts | 169° |
| 2026-05-09 03:53 | 34.85390 | 136.80893 | 8 ft | 24 kts | 169° |
| 2026-05-09 03:53 | 34.85220 | 136.80934 | 8 ft | 24 kts | 169° |
| 2026-05-09 03:54 | 34.85054 | 136.80974 | 8 ft | 24 kts | 169° |
| 2026-05-09 03:54 | 34.84894 | 136.81010 | 8 ft | 23 kts | 169° |
| 2026-05-09 03:54 | 34.84735 | 136.81049 | 8 ft | 23 kts | 169° |
| 2026-05-09 03:54 | 34.84578 | 136.81087 | 8 ft | 22 kts | 169° |
| 2026-05-09 03:55 | 34.84423 | 136.81125 | 8 ft | 22 kts | 169° |
| 2026-05-09 03:55 | 34.84359 | 136.81128 | 8 ft | 6 kts | 204° |
| 2026-05-09 03:55 | 34.84337 | 136.81087 | 8 ft | 5 kts | 257° |
| 2026-05-09 03:55 | 34.84330 | 136.81047 | 8 ft | 4 kts | 257° |
| 2026-05-09 03:56 | 34.84325 | 136.81018 | 8 ft | 2 kts | 258° |
| 2026-05-09 03:56 | 34.84320 | 136.80992 | 8 ft | 3 kts | 258° |
| 2026-05-09 03:56 | 34.84313 | 136.80951 | 8 ft | 6 kts | 258° |
| 2026-05-09 03:56 | 34.84316 | 136.80916 | 8 ft | 4 kts | 302° |
| 2026-05-09 03:57 | 34.84353 | 136.80898 | 8 ft | 7 kts | 348° |
| 2026-05-09 03:57 | 34.84506 | 136.80861 | 8 ft | 54 kts | 349° |
| 2026-05-09 03:57 | 34.85142 | 136.80708 | 8 ft | 129 kts | 349° |
| 2026-05-09 03:57 | 34.86155 | 136.80461 | 417 ft | 153 kts | 345° |
| 2026-05-09 03:58 | 34.87081 | 136.80154 | 1484 ft | 137 kts | 336° |
| 2026-05-09 03:58 | 34.87827 | 136.79411 | 2095 ft | 151 kts | 305° |
| 2026-05-09 03:58 | 34.88147 | 136.78140 | 2687 ft | 170 kts | 281° |
| 2026-05-09 03:58 | 34.87944 | 136.76649 | 3257 ft | 195 kts | 251° |
| 2026-05-09 03:59 | 34.87015 | 136.75284 | 3768 ft | 226 kts | 228° |
| 2026-05-09 03:59 | 34.85786 | 136.73996 | 4388 ft | 243 kts | 227° |
| 2026-05-09 03:59 | 34.84463 | 136.72633 | 5102 ft | 258 kts | 222° |
| 2026-05-09 03:59 | 34.82824 | 136.71559 | 5744 ft | 281 kts | 199° |
| 2026-05-09 04:00 | 34.80819 | 136.71419 | 6485 ft | 297 kts | 174° |
| 2026-05-09 04:00 | 34.78777 | 136.71898 | 7309 ft | 306 kts | 169° |
| 2026-05-09 04:00 | 34.76698 | 136.72513 | 8208 ft | 310 kts | 171° |
| 2026-05-09 04:00 | 34.74565 | 136.72702 | 9024 ft | 309 kts | 191° |
| 2026-05-09 04:01 | 34.72448 | 136.72223 | 9930 ft | 306 kts | 201° |
| 2026-05-09 04:01 | 34.70422 | 136.71550 | 10711 ft | 312 kts | 203° |
| 2026-05-09 04:01 | 34.68267 | 136.70845 | 11344 ft | 326 kts | 201° |
| 2026-05-09 04:01 | 34.66003 | 136.70181 | 11939 ft | 340 kts | 200° |
| 2026-05-09 04:02 | 34.63691 | 136.69574 | 12701 ft | 347 kts | 199° |
| 2026-05-09 04:02 | 34.61305 | 136.68988 | 13589 ft | 350 kts | 199° |
| 2026-05-09 04:02 | 34.58935 | 136.68420 | 14529 ft | 349 kts | 200° |
| 2026-05-09 04:02 | 34.56551 | 136.67848 | 15374 ft | 350 kts | 200° |
| 2026-05-09 04:03 | 34.54190 | 136.67276 | 16241 ft | 350 kts | 200° |
| 2026-05-09 04:03 | 34.51763 | 136.66681 | 17010 ft | 353 kts | 201° |
| 2026-05-09 04:03 | 34.49386 | 136.66097 | 17788 ft | 354 kts | 202° |
| 2026-05-09 04:03 | 34.46963 | 136.65501 | 18605 ft | 354 kts | 202° |
| 2026-05-09 04:04 | 34.44543 | 136.64905 | 19342 ft | 355 kts | 202° |
| 2026-05-09 04:04 | 34.42147 | 136.64319 | 20109 ft | 355 kts | 202° |
| 2026-05-09 04:04 | 34.39709 | 136.63719 | 20775 ft | 357 kts | 202° |
| 2026-05-09 04:04 | 34.37280 | 136.63123 | 21483 ft | 357 kts | 203° |
| 2026-05-09 04:05 | 34.34849 | 136.62527 | 22126 ft | 358 kts | 203° |
| 2026-05-09 04:05 | 34.32865 | 136.62041 | 22574 ft | 361 kts | 203° |
| 2026-05-09 04:05 | 34.32730 | 136.62007 | 22611 ft | 361 kts | 203° |
| 2026-05-09 04:06 | 34.29926 | 136.61322 | 23413 ft | 359 kts | 203° |
| 2026-05-09 04:06 | 34.27498 | 136.60731 | 24009 ft | 359 kts | 203° |
| 2026-05-09 04:06 | 34.25030 | 136.60127 | 24566 ft | 361 kts | 204° |
| 2026-05-09 04:06 | 34.22548 | 136.59503 | 25093 ft | 362 kts | 205° |
| 2026-05-09 04:07 | 34.20151 | 136.58667 | 25660 ft | 353 kts | 211° |
| 2026-05-09 04:07 | 34.17999 | 136.57417 | 26297 ft | 340 kts | 221° |
| 2026-05-09 04:07 | 34.16105 | 136.55804 | 26856 ft | 333 kts | 226° |
| 2026-05-09 04:07 | 34.14334 | 136.54001 | 27304 ft | 333 kts | 229° |
| 2026-05-09 04:08 | 34.12627 | 136.52142 | 27845 ft | 331 kts | 229° |
| 2026-05-09 04:08 | 34.10916 | 136.50252 | 28368 ft | 331 kts | 230° |
| 2026-05-09 04:08 | 34.09220 | 136.48377 | 28813 ft | 332 kts | 229° |
| 2026-05-09 04:08 | 34.07518 | 136.46512 | 29269 ft | 333 kts | 229° |
| 2026-05-09 04:09 | 34.05792 | 136.44634 | 29641 ft | 337 kts | 229° |
| 2026-05-09 04:09 | 34.04047 | 136.42743 | 30139 ft | 336 kts | 228° |
| 2026-05-09 04:09 | 34.02305 | 136.40858 | 30574 ft | 338 kts | 228° |
| 2026-05-09 04:09 | 34.00541 | 136.38959 | 31082 ft | 337 kts | 227° |
| 2026-05-09 04:10 | 33.98780 | 136.37067 | 31420 ft | 340 kts | 228° |
| 2026-05-09 04:10 | 33.96998 | 136.35149 | 31874 ft | 340 kts | 228° |
| 2026-05-09 04:10 | 33.95232 | 136.33252 | 32288 ft | 341 kts | 227° |
| 2026-05-09 04:10 | 33.93454 | 136.31343 | 32723 ft | 341 kts | 227° |
| 2026-05-09 04:11 | 33.91684 | 136.29446 | 33295 ft | 338 kts | 226° |
| 2026-05-09 04:11 | 33.89947 | 136.27586 | 33984 ft | 333 kts | 227° |
| 2026-05-09 04:11 | 33.88250 | 136.25768 | 34655 ft | 329 kts | 227° |
| 2026-05-09 04:11 | 33.86521 | 136.23915 | 34917 ft | 333 kts | 227° |
| 2026-05-09 04:12 | 33.84782 | 136.22044 | 35256 ft | 335 kts | 227° |
| 2026-05-09 04:12 | 33.83074 | 136.20212 | 35745 ft | 333 kts | 227° |
| 2026-05-09 04:12 | 33.81336 | 136.18353 | 36179 ft | 333 kts | 227° |
| 2026-05-09 04:12 | 33.79610 | 136.16509 | 36585 ft | 333 kts | 227° |
| 2026-05-09 04:13 | 33.77867 | 136.14648 | 36988 ft | 332 kts | 227° |
| 2026-05-09 04:13 | 33.76154 | 136.12819 | 37400 ft | 331 kts | 227° |
| 2026-05-09 04:13 | 33.74444 | 136.10994 | 37784 ft | 330 kts | 227° |
| 2026-05-09 04:13 | 33.72721 | 136.09154 | 38069 ft | 330 kts | 228° |
| 2026-05-09 04:14 | 33.69263 | 136.05461 | 38065 ft | 333 kts | 227° |
| 2026-05-09 04:14 | 33.65787 | 136.01762 | 38069 ft | 333 kts | 228° |
| 2026-05-09 04:15 | 33.62346 | 135.98106 | 38070 ft | 330 kts | 227° |
| 2026-05-09 04:15 | 33.58889 | 135.94429 | 38073 ft | 335 kts | 227° |
| 2026-05-09 04:16 | 33.55418 | 135.90749 | 38064 ft | 333 kts | 228° |
| 2026-05-09 04:16 | 33.51941 | 135.87056 | 38087 ft | 335 kts | 227° |
| 2026-05-09 04:17 | 33.48455 | 135.83362 | 38075 ft | 333 kts | 227° |
| 2026-05-09 04:17 | 33.45319 | 135.79353 | 38064 ft | 329 kts | 239° |
| 2026-05-09 04:18 | 33.43514 | 135.74333 | 38082 ft | 330 kts | 251° |
| 2026-05-09 04:18 | 33.42279 | 135.69084 | 38079 ft | 330 kts | 252° |
| 2026-05-09 04:19 | 33.41066 | 135.63786 | 38078 ft | 330 kts | 252° |
| 2026-05-09 04:19 | 33.39836 | 135.58513 | 38073 ft | 329 kts | 252° |
| 2026-05-09 04:20 | 33.38599 | 135.53255 | 38077 ft | 330 kts | 252° |
| 2026-05-09 04:20 | 33.37339 | 135.47934 | 38066 ft | 330 kts | 251° |
| 2026-05-09 04:21 | 33.36074 | 135.42658 | 38095 ft | 331 kts | 252° |
| 2026-05-09 04:22 | 33.34032 | 135.34787 | 38092 ft | 331 kts | 251° |
| 2026-05-09 04:22 | 33.32661 | 135.29542 | 38093 ft | 330 kts | 252° |
| 2026-05-09 04:23 | 33.31300 | 135.24313 | 38096 ft | 329 kts | 250° |
| 2026-05-09 04:23 | 33.29933 | 135.19070 | 38107 ft | 330 kts | 252° |
| 2026-05-09 04:24 | 33.28567 | 135.13837 | 38105 ft | 329 kts | 251° |
| 2026-05-09 04:24 | 33.27200 | 135.08618 | 38107 ft | 330 kts | 250° |
| 2026-05-09 04:25 | 33.25831 | 135.03401 | 38109 ft | 330 kts | 251° |
| 2026-05-09 04:25 | 33.24464 | 134.98141 | 38120 ft | 331 kts | 252° |
| 2026-05-09 04:26 | 33.23185 | 134.92864 | 38107 ft | 330 kts | 252° |
| 2026-05-09 04:26 | 33.21922 | 134.87584 | 38116 ft | 332 kts | 253° |
| 2026-05-09 04:27 | 33.20650 | 134.82309 | 38110 ft | 333 kts | 252° |
| 2026-05-09 04:27 | 33.19359 | 134.76994 | 38102 ft | 333 kts | 251° |
| 2026-05-09 04:28 | 33.18068 | 134.71687 | 38101 ft | 333 kts | 252° |
| 2026-05-09 04:28 | 33.16781 | 134.66425 | 38110 ft | 334 kts | 252° |
| 2026-05-09 04:29 | 33.15484 | 134.61134 | 38105 ft | 332 kts | 251° |
| 2026-05-09 04:29 | 33.14182 | 134.55824 | 38111 ft | 333 kts | 252° |
| 2026-05-09 04:30 | 33.12883 | 134.50528 | 38108 ft | 335 kts | 251° |
| 2026-05-09 04:30 | 33.11573 | 134.45186 | 38101 ft | 334 kts | 252° |
| 2026-05-09 04:31 | 33.10266 | 134.39879 | 38112 ft | 334 kts | 252° |
| 2026-05-09 04:31 | 33.08953 | 134.34561 | 38115 ft | 335 kts | 251° |
| 2026-05-09 04:32 | 33.07629 | 134.29216 | 38105 ft | 336 kts | 251° |
| 2026-05-09 04:32 | 33.06304 | 134.23880 | 38108 ft | 337 kts | 252° |
| 2026-05-09 04:33 | 33.05006 | 134.18553 | 38115 ft | 337 kts | 251° |
| 2026-05-09 04:33 | 33.03715 | 134.13196 | 38114 ft | 337 kts | 252° |
| 2026-05-09 04:34 | 33.02402 | 134.07781 | 38108 ft | 339 kts | 252° |
| 2026-05-09 04:34 | 33.01102 | 134.02429 | 38112 ft | 336 kts | 251° |
| 2026-05-09 04:35 | 32.99795 | 133.97073 | 38105 ft | 337 kts | 252° |
| 2026-05-09 04:35 | 32.98486 | 133.91701 | 38109 ft | 339 kts | 252° |
| 2026-05-09 04:36 | 32.97176 | 133.86350 | 38109 ft | 340 kts | 252° |
| 2026-05-09 04:36 | 32.95857 | 133.80966 | 38105 ft | 340 kts | 251° |
| 2026-05-09 04:37 | 32.94532 | 133.75575 | 38106 ft | 338 kts | 251° |
| 2026-05-09 04:37 | 32.93208 | 133.70207 | 38105 ft | 339 kts | 252° |
| 2026-05-09 04:38 | 32.91887 | 133.64850 | 38099 ft | 339 kts | 252° |
| 2026-05-09 04:38 | 32.90552 | 133.59442 | 38102 ft | 342 kts | 252° |
| 2026-05-09 04:39 | 32.89216 | 133.54040 | 38099 ft | 340 kts | 251° |
| 2026-05-09 04:39 | 32.87867 | 133.48614 | 38010 ft | 340 kts | 251° |
| 2026-05-09 04:40 | 32.86521 | 133.43218 | 38110 ft | 342 kts | 252° |
| 2026-05-09 04:40 | 32.85183 | 133.37843 | 38105 ft | 340 kts | 252° |
| 2026-05-09 04:41 | 32.83838 | 133.32449 | 38098 ft | 341 kts | 251° |
| 2026-05-09 04:41 | 32.82482 | 133.27046 | 38008 ft | 342 kts | 252° |
| 2026-05-09 04:42 | 32.81128 | 133.21645 | 38100 ft | 345 kts | 251° |
| 2026-05-09 04:42 | 32.79768 | 133.16229 | 38103 ft | 339 kts | 252° |
| 2026-05-09 04:43 | 32.78416 | 133.10849 | 38101 ft | 343 kts | 251° |
| 2026-05-09 04:43 | 32.77043 | 133.05409 | 38103 ft | 342 kts | 251° |
| 2026-05-09 04:44 | 32.75605 | 133.00040 | 38182 ft | 341 kts | 249° |
| 2026-05-09 04:44 | 32.74648 | 132.97478 | 38024 ft | 342 kts | 243° |
| 2026-05-09 04:44 | 32.73533 | 132.95000 | 38112 ft | 342 kts | 242° |
| 2026-05-09 04:45 | 32.71152 | 132.90015 | 38103 ft | 346 kts | 242° |
| 2026-05-09 04:45 | 32.68824 | 132.85103 | 38103 ft | 342 kts | 242° |
| 2026-05-09 04:46 | 32.66488 | 132.80127 | 38101 ft | 344 kts | 242° |
| 2026-05-09 04:46 | 32.64175 | 132.75183 | 38097 ft | 345 kts | 243° |
| 2026-05-09 04:47 | 32.61840 | 132.70192 | 38105 ft | 346 kts | 243° |
| 2026-05-09 04:47 | 32.59499 | 132.65196 | 38103 ft | 346 kts | 242° |
| 2026-05-09 04:48 | 32.57173 | 132.60242 | 38103 ft | 346 kts | 242° |
| 2026-05-09 04:48 | 32.54832 | 132.55261 | 38103 ft | 345 kts | 243° |
| 2026-05-09 04:49 | 32.52484 | 132.50270 | 38105 ft | 346 kts | 243° |
| 2026-05-09 04:49 | 32.50133 | 132.45276 | 38107 ft | 348 kts | 242° |
| 2026-05-09 04:50 | 32.47790 | 132.40311 | 38108 ft | 346 kts | 243° |
| 2026-05-09 04:50 | 32.45433 | 132.35315 | 38105 ft | 348 kts | 242° |
| 2026-05-09 04:51 | 32.43063 | 132.30310 | 38107 ft | 346 kts | 243° |
| 2026-05-09 04:51 | 32.40714 | 132.25354 | 38107 ft | 349 kts | 242° |
| 2026-05-09 04:52 | 32.38317 | 132.20290 | 38109 ft | 351 kts | 242° |
| 2026-05-09 04:52 | 32.35946 | 132.15303 | 38110 ft | 348 kts | 242° |
| 2026-05-09 04:53 | 32.33561 | 132.10280 | 38109 ft | 352 kts | 242° |
| 2026-05-09 04:53 | 32.31170 | 132.05264 | 38109 ft | 350 kts | 242° |
| 2026-05-09 04:54 | 32.28778 | 132.00252 | 38111 ft | 352 kts | 242° |
| 2026-05-09 04:54 | 32.26371 | 131.95210 | 38110 ft | 351 kts | 242° |
| 2026-05-09 04:55 | 32.23977 | 131.90205 | 38110 ft | 351 kts | 242° |
| 2026-05-09 04:55 | 32.21573 | 131.85188 | 38109 ft | 351 kts | 242° |
| 2026-05-09 04:56 | 32.19175 | 131.80185 | 38108 ft | 353 kts | 242° |
| 2026-05-09 04:56 | 32.16755 | 131.75142 | 38107 ft | 352 kts | 242° |
| 2026-05-09 04:57 | 32.14343 | 131.70123 | 38105 ft | 352 kts | 242° |
| 2026-05-09 04:57 | 32.11899 | 131.65050 | 38105 ft | 355 kts | 242° |
| 2026-05-09 04:58 | 32.09446 | 131.59961 | 38107 ft | 355 kts | 242° |
| 2026-05-09 04:58 | 32.07025 | 131.54939 | 38107 ft | 356 kts | 242° |
| 2026-05-09 04:59 | 32.04570 | 131.49860 | 38107 ft | 357 kts | 242° |
| 2026-05-09 04:59 | 32.02111 | 131.44777 | 38107 ft | 355 kts | 242° |
| 2026-05-09 05:00 | 31.99646 | 131.39693 | 38103 ft | 357 kts | 243° |
| 2026-05-09 05:00 | 31.97194 | 131.34634 | 38159 ft | 356 kts | 242° |
| 2026-05-09 05:01 | 31.94724 | 131.29549 | 38080 ft | 357 kts | 242° |
| 2026-05-09 05:01 | 31.92254 | 131.24471 | 38110 ft | 358 kts | 242° |
| 2026-05-09 05:02 | 31.89772 | 131.19382 | 38042 ft | 356 kts | 242° |
| 2026-05-09 05:02 | 31.87317 | 131.14354 | 38107 ft | 357 kts | 242° |
| 2026-05-09 05:03 | 31.84836 | 131.09274 | 38107 ft | 359 kts | 242° |
| 2026-05-09 05:03 | 31.82329 | 131.04152 | 38113 ft | 359 kts | 242° |
| 2026-05-09 05:04 | 31.79847 | 130.99094 | 38110 ft | 359 kts | 243° |